Liberta — V2CM3 — position and weather

sailwx.info

Track history (hours):
 
Tides and Currents Weather Stations Pressure Air Temp Water Temp Dewpoint Dewpoint Depression Visibility Wind Speed Wind Dir Waves Ship Positions

Liberta

Last reported at 2018-Apr-08 17:35 UTC. Time now 2018-Apr-27 01:09 UTC.
Position N 35°60' W 005°30'.
Warning: this ship's position is 18 days out of date.

Length 138 m; draft 7.5 m.

Type: Cargo ship. MMSI: 305043000.

Date/timePositionNaut miles runAvg speedWind from/ knotsBaromVisibWave heightAir tempDewpointWater temp
2018-Apr-08 17:35N 35°60' W 005°30'1 9.6
2018-Apr-08 17:30N 36°00' W 005°29'4 8.9
2018-Apr-08 17:00N 36°02' W 005°24'510.8
2018-Apr-08 16:30N 36°07' W 005°23'1 2.3
2018-Apr-08 15:55N 36°08' W 005°22'0 0.0
2018-Apr-08 15:16N 36°08' W 005°22'0 0.0
2018-Apr-08 14:43N 36°08' W 005°22'0 0.0
2018-Apr-08 13:43N 36°08' W 005°22'0 0.0
2018-Apr-08 13:16N 36°08' W 005°22'0 0.0
2018-Apr-08 12:55N 36°08' W 005°22'0 0.0
2018-Apr-08 12:28N 36°08' W 005°22'0 0.0
2018-Apr-08 11:55N 36°08' W 005°22'0 0.1
2018-Apr-08 11:13N 36°08' W 005°22'0 0.1
2018-Apr-08 10:37N 36°08' W 005°22'0 0.6
2018-Apr-08 10:28N 36°08' W 005°22'1 2.3
2018-Apr-08 10:00N 36°07' W 005°22'2 5.0
2018-Apr-08 09:30N 36°06' W 005°20'216 6.5
2018-Apr-07 00:27N 37°13' W 001°04'612.0
2018-Apr-07 00:00N 37°17' W 000°59'612.2
2018-Apr-06 23:30N 37°21' W 000°53'612.6
2018-Apr-06 23:00N 37°25' W 000°47'712.4
2018-Apr-06 22:28N 37°29' W 000°41'1112.2
2018-Apr-06 21:35N 37°37' W 000°31'113.0
2018-Apr-06 21:30N 37°38' W 000°31'713.2
2018-Apr-06 21:00N 37°43' W 000°26'  
2018-Apr-02 23:15N 38°30' E 002°28'414.2
2018-Apr-02 23:00N 38°30' E 002°33'713.9
2018-Apr-02 22:30N 38°29' E 002°42'813.9
2018-Apr-02 21:54N 38°29' E 002°52'814.1
2018-Apr-02 21:19N 38°28' E 003°03'414.0
2018-Apr-02 21:00N 38°28' E 003°08'714.3
2018-Apr-02 20:30N 38°27' E 003°18'714.0
2018-Apr-02 20:00N 38°27' E 003°26'  
2018-Mar-30 16:39N 37°04' E 012°24'1 6.9
2018-Mar-30 16:27N 37°03' E 012°25'714.0
2018-Mar-30 15:56N 37°01' E 012°34'4 8.3
2018-Mar-30 15:29N 36°60' E 012°38'611.6
2018-Mar-30 15:00N 36°58' E 012°45'612.1
2018-Mar-30 14:28N 36°55' E 012°52'611.9
2018-Mar-30 13:59N 36°53' E 012°59'612.3
2018-Mar-30 13:30N 36°51' E 013°06'610.8
2018-Mar-30 12:58N 36°49' E 013°13'511.1
2018-Mar-30 12:30N 36°47' E 013°19'611.9
2018-Mar-30 12:00N 36°45' E 013°26'510.5
2018-Mar-30 11:30N 36°44' E 013°32'510.6
2018-Mar-30 11:00N 36°42' E 013°38'611.4
2018-Mar-30 10:30N 36°40' E 013°45'510.6
2018-Mar-30 10:00N 36°38' E 013°51'713.5
2018-Mar-30 09:30N 36°36' E 013°59'5 8.7
2018-Mar-30 08:59N 36°34' E 014°04'511.2
2018-Mar-30 08:30N 36°32' E 014°10'611.4
2018-Mar-30 08:00N 36°30' E 014°17'611.2
2018-Mar-30 07:30N 36°29' E 014°24'611.8
2018-Mar-30 06:59N 36°26' E 014°31'611.3
2018-Mar-30 06:30N 36°24' E 014°37'713.9
2018-Mar-30 06:00N 36°25' E 014°45'4 7.3
2018-Mar-30 05:28N 36°26' E 014°50'511.2
2018-Mar-30 05:00N 36°27' E 014°56'2811.2
2018-Mar-30 02:29N 36°34' E 015°31'511.5
2018-Mar-30 02:00N 36°35' E 015°37'814.6
2018-Mar-30 01:27N 36°37' E 015°47'3 6.8
2018-Mar-30 01:00N 36°37' E 015°51'1612.8
2018-Mar-29 23:43N 36°41' E 016°11'  
Track history (hours):
 
Tides and Currents Weather Stations Pressure Air Temp Water Temp Dewpoint Dewpoint Depression Visibility Wind Speed Wind Dir Waves Ship Positions

Liberta

Last reported at 2018-Apr-08 17:35 UTC. Time now 2018-Apr-27 01:09 UTC.
Position N 35°60' W 005°30'.
Warning: this ship's position is 18 days out of date.

Length 138 m; draft 7.5 m.

Type: Cargo ship. MMSI: 305043000.

Date/timePositionNaut miles runAvg speedWind from/ knotsBaromVisibWave heightAir tempDewpointWater temp
2018-Apr-08 17:35N 35°60' W 005°30'1 9.6
2018-Apr-08 17:30N 36°00' W 005°29'4 8.9
2018-Apr-08 17:00N 36°02' W 005°24'510.8
2018-Apr-08 16:30N 36°07' W 005°23'1 2.3
2018-Apr-08 15:55N 36°08' W 005°22'0 0.0
2018-Apr-08 15:16N 36°08' W 005°22'0 0.0
2018-Apr-08 14:43N 36°08' W 005°22'0 0.0
2018-Apr-08 13:43N 36°08' W 005°22'0 0.0
2018-Apr-08 13:16N 36°08' W 005°22'0 0.0
2018-Apr-08 12:55N 36°08' W 005°22'0 0.0
2018-Apr-08 12:28N 36°08' W 005°22'0 0.0
2018-Apr-08 11:55N 36°08' W 005°22'0 0.1
2018-Apr-08 11:13N 36°08' W 005°22'0 0.1
2018-Apr-08 10:37N 36°08' W 005°22'0 0.6
2018-Apr-08 10:28N 36°08' W 005°22'1 2.3
2018-Apr-08 10:00N 36°07' W 005°22'2 5.0
2018-Apr-08 09:30N 36°06' W 005°20'216 6.5
2018-Apr-07 00:27N 37°13' W 001°04'612.0
2018-Apr-07 00:00N 37°17' W 000°59'612.2
2018-Apr-06 23:30N 37°21' W 000°53'612.6
2018-Apr-06 23:00N 37°25' W 000°47'712.4
2018-Apr-06 22:28N 37°29' W 000°41'1112.2
2018-Apr-06 21:35N 37°37' W 000°31'113.0
2018-Apr-06 21:30N 37°38' W 000°31'713.2
2018-Apr-06 21:00N 37°43' W 000°26'  
2018-Apr-02 23:15N 38°30' E 002°28'414.2
2018-Apr-02 23:00N 38°30' E 002°33'713.9
2018-Apr-02 22:30N 38°29' E 002°42'813.9
2018-Apr-02 21:54N 38°29' E 002°52'814.1
2018-Apr-02 21:19N 38°28' E 003°03'414.0
2018-Apr-02 21:00N 38°28' E 003°08'714.3
2018-Apr-02 20:30N 38°27' E 003°18'714.0
2018-Apr-02 20:00N 38°27' E 003°26'  
2018-Mar-30 16:39N 37°04' E 012°24'1 6.9
2018-Mar-30 16:27N 37°03' E 012°25'714.0
2018-Mar-30 15:56N 37°01' E 012°34'4 8.3
2018-Mar-30 15:29N 36°60' E 012°38'611.6
2018-Mar-30 15:00N 36°58' E 012°45'612.1
2018-Mar-30 14:28N 36°55' E 012°52'611.9
2018-Mar-30 13:59N 36°53' E 012°59'612.3
2018-Mar-30 13:30N 36°51' E 013°06'610.8
2018-Mar-30 12:58N 36°49' E 013°13'511.1
2018-Mar-30 12:30N 36°47' E 013°19'611.9
2018-Mar-30 12:00N 36°45' E 013°26'510.5
2018-Mar-30 11:30N 36°44' E 013°32'510.6
2018-Mar-30 11:00N 36°42' E 013°38'611.4
2018-Mar-30 10:30N 36°40' E 013°45'510.6
2018-Mar-30 10:00N 36°38' E 013°51'713.5
2018-Mar-30 09:30N 36°36' E 013°59'5 8.7
2018-Mar-30 08:59N 36°34' E 014°04'511.2
2018-Mar-30 08:30N 36°32' E 014°10'611.4
2018-Mar-30 08:00N 36°30' E 014°17'611.2
2018-Mar-30 07:30N 36°29' E 014°24'611.8
2018-Mar-30 06:59N 36°26' E 014°31'611.3
2018-Mar-30 06:30N 36°24' E 014°37'713.9
2018-Mar-30 06:00N 36°25' E 014°45'4 7.3
2018-Mar-30 05:28N 36°26' E 014°50'511.2
2018-Mar-30 05:00N 36°27' E 014°56'2811.2
2018-Mar-30 02:29N 36°34' E 015°31'511.5
2018-Mar-30 02:00N 36°35' E 015°37'814.6
2018-Mar-30 01:27N 36°37' E 015°47'3 6.8
2018-Mar-30 01:00N 36°37' E 015°51'1612.8
2018-Mar-29 23:43N 36°41' E 016°11'  

Dump ship's entire track history